CA-0252 weather

CLOSED Murdochville Airport
Quebec, Canada

Public forecast

Using degrees Celsius for public forecast. Weather courtesy of forecast.io.

METAR (pilot weather report)

Closest report is GaspĂ© (Michel-Pouliot) Airport, 36.6 nm (67.8 km) ESE. Retrieved 2019/05/19 16:00 UTC (37 minutes ago):

CYGP 191600Z 02008KT 310V060 15SM BKN220 BKN240 13/M01 A3005 RMK CS5CI2 SLP177

TAF (pilot weather forecast)

Closest forecast is GaspĂ© (Michel-Pouliot) Airport, 36.6 nm (67.8 km) ESE. Retrieved 2019/05/19 14:00 UTC (3 hours ago):

TAF CYGP 191338Z 1914/2002 02008KT P6SM SCT240 FM191800 04008KT P6SM SKC BECMG 1922/1924 VRB03KT RMK NXT FCST BY 192000Z